Arrington, Tennessee
Current Conditions -  °F | °C
As of 2:53 PM on Friday 19 Dec 2014 (Local Time) from KBNA Reporting Station
Broken Clouds Broken Clouds  
Wind Chill: 37°   Ceiling: 20000
Heat Index: 41°   Visibility: 10mi
Dew Point: 28°   Wind: 6mph
Humidity: 60%   Direction: 360°N
Pressure: 30.23"   Gusts: NA
Location:  35.87°N, 86.71°W
Report Text: KBNA 192053Z 36005KT 10SM SCT110 BKN200 05/M02 A3023 RMK AO2 SLP241 T00501022 58007
Loading
Personal Weather Stations






























Interactive Weather Map New forecast layout! Learn more

10-Day Weather Forecast

Advertisements
Track Severe Weather on mobile